Terminal Aerodrome Forecast
Issued by NWS

Home | Current Version | Previous Version | Graphics & Text | Print | Product List | Glossary On
Versions: 1 2 3 4 5 6 7 8 9 10 11 12 13 14 15
000
FTUS43 KICT 151137
TAFRSL
TAF
KRSL 151137Z 1512/1612 07006KT 6SM -FZRA SCT009 OVC015
      TEMPO 1513/1517 4SM FZRA SCT006 OVC009
     FM151700 07006KT 6SM -FZRA SCT005 OVC007=

USA.gov is the U.S. government's official web portal to all federal, state and local government web resources and services.